Riga, Latvia
Current Conditions -  °F | °C
As of 10:20 PM on Saturday 25 Oct 2014 (Local Time) from EVRA Reporting Station
Clear Clear  
Wind Chill: 24°   Ceiling: Unl
Heat Index: 34°   Visibility: 6mi
Dew Point: 16°   Wind: 16mph
Humidity: 48%   Direction: 170°S
Pressure: 30.3"   Gusts: NA
Location:  56.97°N, 24.13°E
Report Text: EVRA 251920Z 17014KT CAVOK 01/M09 Q1026 R18/090095 NOSIG
Loading
Personal Weather Stations






























Interactive Weather Map
Tropical Storm Tracking
New forecast layout! Learn more

10-Day Weather Forecast

Advertisements
Track Severe Weather on mobile